createdAt,value
2019-03-30T00:00:29.305Z,22.02
2019-03-30T00:01:38.027Z,22.27
2019-03-30T00:02:44.447Z,20.70
2019-03-30T00:03:48.922Z,21.15
2019-03-30T00:04:53.405Z,20.70
2019-03-30T00:05:57.869Z,20.55
2019-03-30T00:07:02.341Z,20.62
2019-03-30T00:08:06.808Z,21.27
2019-03-30T00:09:11.650Z,20.92
2019-03-30T00:10:16.141Z,21.33
2019-03-30T00:11:21.090Z,21.00
2019-03-30T00:12:25.854Z,21.93
2019-03-30T00:13:30.317Z,22.22
2019-03-30T00:14:35.137Z,22.37
2019-03-30T00:15:40.060Z,21.20
2019-03-30T00:16:44.526Z,21.45
2019-03-30T00:17:49.962Z,21.20
2019-03-30T00:18:54.826Z,20.32
2019-03-30T00:19:59.748Z,20.57
2019-03-30T00:21:04.312Z,20.57
2019-03-30T00:22:10.020Z,20.25
2019-03-30T00:23:14.820Z,20.23
2019-03-30T00:24:19.288Z,21.23
2019-03-30T00:25:24.049Z,21.00
2019-03-30T00:26:28.528Z,21.05
2019-03-30T00:27:33.380Z,20.55
2019-03-30T00:28:37.845Z,22.27
2019-03-30T00:29:42.323Z,19.37
2019-03-30T00:30:46.887Z,20.30
2019-03-30T00:31:51.742Z,20.43
2019-03-30T00:33:06.053Z,21.81
2019-03-30T00:34:10.517Z,22.22
2019-03-30T00:35:15.049Z,20.70
2019-03-30T00:36:19.535Z,21.95
2019-03-30T00:37:23.987Z,20.70
2019-03-30T00:38:28.763Z,21.27
2019-03-30T00:39:33.220Z,21.17
2019-03-30T00:40:37.691Z,20.52
2019-03-30T00:41:42.177Z,21.30
2019-03-30T00:42:46.645Z,21.33
2019-03-30T00:43:51.519Z,20.25
2019-03-30T00:44:56.335Z,21.25
2019-03-30T00:46:00.824Z,20.68
2019-03-30T00:47:05.667Z,22.37
2019-03-30T00:48:10.127Z,20.62
2019-03-30T00:49:15.959Z,20.65
2019-03-30T00:50:20.735Z,20.23
2019-03-30T00:51:25.219Z,21.23
2019-03-30T00:52:29.676Z,21.05
2019-03-30T00:53:34.149Z,21.30
2019-03-30T00:54:38.616Z,21.07
2019-03-30T00:55:43.091Z,21.60
2019-03-30T00:56:47.579Z,20.70
2019-03-30T00:57:52.343Z,21.75
2019-03-30T00:58:56.803Z,21.50
2019-03-30T01:00:01.669Z,21.95
2019-03-30T01:01:06.201Z,21.50
2019-03-30T01:02:10.701Z,20.72
2019-03-30T01:03:15.232Z,19.75
2019-03-30T01:04:19.700Z,20.92
2019-03-30T01:05:24.168Z,22.27
2019-03-30T01:06:29.047Z,23.77
2019-03-30T01:07:33.866Z,22.05
2019-03-30T01:08:38.341Z,22.00
2019-03-30T01:09:42.811Z,22.02
2019-03-30T01:10:48.625Z,21.25
2019-03-30T01:11:53.180Z,21.45
2019-03-30T01:12:57.649Z,22.00
2019-03-30T01:14:02.271Z,21.70
2019-03-30T01:15:08.141Z,21.25
2019-03-30T01:16:12.679Z,22.85
2019-03-30T01:17:17.160Z,22.10
2019-03-30T01:18:21.630Z,22.17
2019-03-30T01:19:26.097Z,24.40
2019-03-30T01:20:30.566Z,23.85
2019-03-30T01:21:35.050Z,21.68
2019-03-30T01:22:39.902Z,21.73
2019-03-30T01:23:44.379Z,21.27
2019-03-30T01:24:49.555Z,20.70
2019-03-30T01:25:54.320Z,23.10
2019-03-30T01:26:59.178Z,21.30
2019-03-30T01:28:03.999Z,20.60
2019-03-30T01:29:08.463Z,22.02
2019-03-30T01:30:23.104Z,20.92
2019-03-30T01:31:19.639Z,21.52
2019-03-30T01:32:24.121Z,21.65
2019-03-30T01:33:28.592Z,20.48
2019-03-30T01:34:33.064Z,21.25
2019-03-30T01:35:37.599Z,20.20
2019-03-30T01:36:42.104Z,21.02
2019-03-30T01:37:46.569Z,20.55
2019-03-30T01:38:51.030Z,20.37
2019-03-30T01:39:55.499Z,22.73
2019-03-30T01:40:59.955Z,22.82
2019-03-30T01:42:05.020Z,22.73
2019-03-30T01:43:09.488Z,22.35
2019-03-30T01:44:14.350Z,21.42
2019-03-30T01:45:18.825Z,20.77
2019-03-30T01:46:23.285Z,21.30
2019-03-30T01:47:28.195Z,21.80
2019-03-30T01:48:33.012Z,22.00
2019-03-30T01:49:38.086Z,22.77
2019-03-30T01:50:42.552Z,21.23
2019-03-30T01:51:47.176Z,21.27
2019-03-30T01:52:51.682Z,21.10
2019-03-30T01:53:56.145Z,21.45
2019-03-30T01:55:00.616Z,20.05
2019-03-30T01:56:05.420Z,21.10
2019-03-30T01:57:10.195Z,20.88
2019-03-30T01:58:14.653Z,20.72
2019-03-30T01:59:19.123Z,22.10
2019-03-30T02:00:23.732Z,21.15
2019-03-30T02:01:28.199Z,20.08
2019-03-30T02:02:33.006Z,19.57
2019-03-30T02:03:37.473Z,19.95
2019-03-30T02:04:41.937Z,20.02
2019-03-30T02:05:46.409Z,18.15
2019-03-30T02:06:51.270Z,19.90
2019-03-30T02:07:55.831Z,20.55
2019-03-30T02:09:00.288Z,19.65
2019-03-30T02:10:06.769Z,20.45
2019-03-30T02:11:11.298Z,20.85
2019-03-30T02:12:15.769Z,22.17
2019-03-30T02:13:20.545Z,22.15
2019-03-30T02:14:25.077Z,22.95
2019-03-30T02:15:29.923Z,23.95
2019-03-30T02:16:34.677Z,23.20
2019-03-30T02:17:39.160Z,25.60
2019-03-30T02:18:43.624Z,23.50
2019-03-30T02:19:48.109Z,22.30
2019-03-30T02:20:52.563Z,22.17
2019-03-30T02:21:57.409Z,22.15
2019-03-30T02:23:01.892Z,23.40
2019-03-30T02:24:06.365Z,21.42
2019-03-30T02:25:11.127Z,22.75
2019-03-30T02:26:15.587Z,22.10
2019-03-30T02:27:20.051Z,23.65
2019-03-30T02:28:24.546Z,21.93
2019-03-30T02:29:29.294Z,21.40
2019-03-30T02:30:34.125Z,22.07
2019-03-30T02:31:38.586Z,21.82
2019-03-30T02:32:43.077Z,22.22
2019-03-30T02:33:47.539Z,21.87
2019-03-30T02:34:52.013Z,21.23
2019-03-30T02:35:57.453Z,21.40
2019-03-30T02:37:01.913Z,22.22
2019-03-30T02:38:06.423Z,25.55
2019-03-30T02:39:10.859Z,21.93
2019-03-30T02:40:15.336Z,20.43
2019-03-30T02:41:19.790Z,22.65
2019-03-30T02:42:24.251Z,26.85
2019-03-30T02:43:29.046Z,23.43
2019-03-30T02:44:36.170Z,24.87
2019-03-30T02:45:40.950Z,24.37
2019-03-30T02:46:45.403Z,23.85
2019-03-30T02:47:58.487Z,24.54
2019-03-30T02:49:02.945Z,24.00
2019-03-30T02:50:08.794Z,22.65
2019-03-30T02:51:13.254Z,22.00
2019-03-30T02:52:17.733Z,21.27
2019-03-30T02:53:22.514Z,23.55
2019-03-30T02:54:26.985Z,22.58
2019-03-30T02:55:31.442Z,22.75
2019-03-30T02:56:35.902Z,20.82
2019-03-30T02:57:40.529Z,21.90
2019-03-30T02:58:45.032Z,22.07
2019-03-30T02:59:49.654Z,26.30
2019-03-30T03:00:54.492Z,19.98
2019-03-30T03:01:58.958Z,22.52
2019-03-30T03:03:03.588Z,22.77
2019-03-30T03:04:08.056Z,21.93
2019-03-30T03:05:13.188Z,26.23
2019-03-30T03:06:17.632Z,22.32
2019-03-30T03:07:22.106Z,24.15
2019-03-30T03:08:26.901Z,21.93
2019-03-30T03:09:31.369Z,23.32
2019-03-30T03:10:35.825Z,22.52
2019-03-30T03:11:40.301Z,23.12
2019-03-30T03:12:44.756Z,27.75
2019-03-30T03:13:49.246Z,22.58
2019-03-30T03:14:54.115Z,24.07
2019-03-30T03:15:58.582Z,23.95
2019-03-30T03:17:03.053Z,24.18
2019-03-30T03:18:07.835Z,22.90
2019-03-30T03:19:12.326Z,23.80
2019-03-30T03:20:17.056Z,25.48
2019-03-30T03:21:21.524Z,25.20
2019-03-30T03:22:25.988Z,28.65
2019-03-30T03:23:30.465Z,25.08
2019-03-30T03:24:34.935Z,25.77
2019-03-30T03:25:39.402Z,24.92
2019-03-30T03:26:44.231Z,25.75
2019-03-30T03:27:48.686Z,27.42
2019-03-30T03:28:53.174Z,27.15
2019-03-30T03:29:57.975Z,27.35
2019-03-30T03:31:02.795Z,25.82
2019-03-30T03:32:07.255Z,30.15
2019-03-30T03:33:12.033Z,29.00
2019-03-30T03:34:16.510Z,25.82
2019-03-30T03:35:20.965Z,26.90
2019-03-30T03:36:25.424Z,25.70
2019-03-30T03:37:43.090Z,27.87
2019-03-30T03:38:36.446Z,28.35
2019-03-30T03:39:40.898Z,28.75
2019-03-30T03:40:45.772Z,27.90
2019-03-30T03:41:50.221Z,27.15
2019-03-30T03:42:54.690Z,25.02
2019-03-30T03:44:00.145Z,26.45
2019-03-30T03:45:07.367Z,27.30
2019-03-30T03:46:12.812Z,30.65
2019-03-30T03:47:17.281Z,27.87
2019-03-30T03:48:22.054Z,26.40
2019-03-30T03:49:26.538Z,25.37
2019-03-30T03:50:42.821Z,25.75
2019-03-30T03:51:47.388Z,25.55
2019-03-30T03:52:52.400Z,26.20
2019-03-30T03:53:57.415Z,26.00
2019-03-30T03:55:02.749Z,27.07
2019-03-30T03:56:08.379Z,26.10
2019-03-30T03:57:15.877Z,26.12
2019-03-30T03:58:24.450Z,25.95
2019-03-30T03:59:29.312Z,25.82
2019-03-30T04:00:35.521Z,27.60
2019-03-30T04:01:41.531Z,30.77
2019-03-30T04:02:46.422Z,30.32
2019-03-30T04:03:53.310Z,31.97
2019-03-30T04:05:00.880Z,30.90
2019-03-30T04:06:06.898Z,29.50
2019-03-30T04:07:13.100Z,29.55
2019-03-30T04:08:17.811Z,31.55
2019-03-30T04:09:24.349Z,32.28
2019-03-30T04:10:32.233Z,31.57
2019-03-30T04:11:39.793Z,29.32
2019-03-30T04:12:45.946Z,26.52
2019-03-30T04:13:53.266Z,31.02
2019-03-30T04:15:00.742Z,30.32
2019-03-30T04:16:05.863Z,27.15
2019-03-30T04:17:10.998Z,26.10
2019-03-30T04:18:15.819Z,27.55
2019-03-30T04:19:20.297Z,30.23
2019-03-30T04:20:24.917Z,29.48
2019-03-30T04:21:42.844Z,29.75
2019-03-30T04:22:35.688Z,27.58
2019-03-30T04:23:41.225Z,26.07
2019-03-30T04:24:46.658Z,25.68
2019-03-30T04:25:51.489Z,26.95
2019-03-30T04:26:56.306Z,26.97
2019-03-30T04:28:00.778Z,27.15
2019-03-30T04:29:05.249Z,26.85
2019-03-30T04:30:09.808Z,27.98
2019-03-30T04:31:14.570Z,27.27
2019-03-30T04:32:19.039Z,31.27
2019-03-30T04:33:24.924Z,27.87
2019-03-30T04:34:29.742Z,25.85
2019-03-30T04:35:34.560Z,26.75
2019-03-30T04:36:39.024Z,26.75
2019-03-30T04:37:43.484Z,25.82
2019-03-30T04:38:48.322Z,27.52
2019-03-30T04:39:52.786Z,30.55
2019-03-30T04:40:57.263Z,28.87
2019-03-30T04:42:01.812Z,29.02
2019-03-30T04:43:06.651Z,26.87
2019-03-30T04:44:11.120Z,24.82
2019-03-30T04:45:15.988Z,26.73
2019-03-30T04:46:20.457Z,25.90
2019-03-30T04:47:24.931Z,31.35
2019-03-30T04:48:29.729Z,28.83
2019-03-30T04:49:34.335Z,26.37
2019-03-30T04:50:38.816Z,26.10
2019-03-30T04:51:56.531Z,25.55
2019-03-30T04:52:49.727Z,26.15
2019-03-30T04:53:54.188Z,25.27
2019-03-30T04:54:58.650Z,24.12
2019-03-30T04:56:03.141Z,25.75
2019-03-30T04:57:07.599Z,25.17
2019-03-30T04:58:12.081Z,24.43
2019-03-30T04:59:16.956Z,24.20
2019-03-30T05:00:21.438Z,24.07
2019-03-30T05:01:25.904Z,24.15
2019-03-30T05:02:30.370Z,25.80
2019-03-30T05:03:34.839Z,25.62
2019-03-30T05:04:39.303Z,25.37
2019-03-30T05:05:43.857Z,24.35
2019-03-30T05:06:48.330Z,23.80
2019-03-30T05:07:53.102Z,23.81
2019-03-30T05:08:57.588Z,26.02
2019-03-30T05:10:04.272Z,25.62
2019-03-30T05:11:08.756Z,27.42
2019-03-30T05:12:13.290Z,26.55
2019-03-30T05:13:17.769Z,23.77
2019-03-30T05:14:22.535Z,23.80
2019-03-30T05:15:27.039Z,25.45
2019-03-30T05:16:31.496Z,24.10
2019-03-30T05:17:47.046Z,25.25
2019-03-30T05:18:42.113Z,24.85
2019-03-30T05:19:46.571Z,23.85
2019-03-30T05:20:51.049Z,24.82
2019-03-30T05:21:55.525Z,25.30
2019-03-30T05:23:00.372Z,23.95
2019-03-30T05:24:04.828Z,25.65
2019-03-30T05:25:09.361Z,26.75
2019-03-30T05:26:13.844Z,26.37
2019-03-30T05:27:18.311Z,25.85
2019-03-30T05:28:22.766Z,26.87
2019-03-30T05:29:27.227Z,24.80
2019-03-30T05:30:33.096Z,26.73
2019-03-30T05:31:37.580Z,26.02
2019-03-30T05:32:42.184Z,28.50
2019-03-30T05:33:46.747Z,25.90
2019-03-30T05:34:51.225Z,25.65
2019-03-30T05:35:55.780Z,27.17
2019-03-30T05:37:00.246Z,26.35
2019-03-30T05:38:04.716Z,25.82
2019-03-30T05:39:09.171Z,25.85
2019-03-30T05:40:14.007Z,25.23
2019-03-30T05:41:18.485Z,23.47
2019-03-30T05:42:24.020Z,25.43
2019-03-30T05:43:28.489Z,28.25
2019-03-30T05:44:32.955Z,26.55
2019-03-30T05:45:37.419Z,25.60
2019-03-30T05:46:41.908Z,27.37
2019-03-30T05:47:46.654Z,25.52
2019-03-30T05:48:51.122Z,25.92
2019-03-30T05:49:55.681Z,27.73
2019-03-30T05:51:00.185Z,27.82
2019-03-30T05:52:04.639Z,28.87
2019-03-30T05:53:09.488Z,25.60
2019-03-30T05:54:13.953Z,27.20
2019-03-30T05:55:18.413Z,25.50
2019-03-30T05:56:22.896Z,25.90
2019-03-30T05:57:27.358Z,24.92
2019-03-30T05:58:31.827Z,25.08
2019-03-30T05:59:36.283Z,26.87
2019-03-30T06:00:40.751Z,23.30
2019-03-30T06:01:45.587Z,24.43
2019-03-30T06:02:50.051Z,25.62
2019-03-30T06:03:54.821Z,25.37
2019-03-30T06:05:01.563Z,26.30
2019-03-30T06:06:10.893Z,25.91
2019-03-30T06:07:15.378Z,26.60
2019-03-30T06:08:19.900Z,25.25
2019-03-30T06:09:24.754Z,28.25
2019-03-30T06:10:30.304Z,25.72
2019-03-30T06:11:35.114Z,29.42
2019-03-30T06:12:39.931Z,27.20
2019-03-30T06:13:44.465Z,30.35
2019-03-30T06:14:48.929Z,29.48
2019-03-30T06:15:53.774Z,29.95
2019-03-30T06:16:58.416Z,29.35
2019-03-30T06:18:02.887Z,30.15
2019-03-30T06:19:07.734Z,28.12
2019-03-30T06:20:12.220Z,27.60
2019-03-30T06:21:17.048Z,29.85
2019-03-30T06:22:21.527Z,27.10
2019-03-30T06:23:26.021Z,26.77
2019-03-30T06:24:30.483Z,23.98
2019-03-30T06:25:34.949Z,22.13
2019-03-30T06:26:39.429Z,21.73
2019-03-30T06:27:43.884Z,21.70
2019-03-30T06:28:48.356Z,22.45
2019-03-30T06:30:18.799Z,20.82
2019-03-30T06:31:23.261Z,21.12
2019-03-30T06:32:27.744Z,20.95
2019-03-30T06:33:32.503Z,22.62
2019-03-30T06:34:36.970Z,21.17
2019-03-30T06:35:41.822Z,21.02
2019-03-30T06:36:46.315Z,21.42
2019-03-30T06:37:50.767Z,20.55
2019-03-30T06:38:55.228Z,19.87
2019-03-30T06:39:59.989Z,20.32
2019-03-30T06:41:04.591Z,20.32
2019-03-30T06:42:09.371Z,18.50
2019-03-30T06:43:13.845Z,19.20
2019-03-30T06:44:18.297Z,19.40
2019-03-30T06:45:22.763Z,19.40
2019-03-30T06:46:27.225Z,16.97
2019-03-30T06:47:31.701Z,18.42
2019-03-30T06:48:36.381Z,18.17
2019-03-30T06:49:40.822Z,18.98
2019-03-30T06:50:45.277Z,17.80
2019-03-30T06:51:49.742Z,18.00
2019-03-30T06:52:57.955Z,17.80
2019-03-30T06:54:00.397Z,31.65
2019-03-30T06:55:06.807Z,21.48
2019-03-30T06:56:11.265Z,17.15
2019-03-30T06:57:15.754Z,17.75
2019-03-30T06:58:20.224Z,17.92
2019-03-30T06:59:25.006Z,17.17
2019-03-30T07:00:34.286Z,17.30
2019-03-30T07:01:39.038Z,17.65
2019-03-30T07:02:43.919Z,18.12
2019-03-30T07:03:48.469Z,17.75
2019-03-30T07:04:53.533Z,17.70
2019-03-30T07:05:59.138Z,16.90
2019-03-30T07:07:04.158Z,17.12
2019-03-30T07:08:14.304Z,17.32
2019-03-30T07:09:22.113Z,18.50
2019-03-30T07:10:26.913Z,17.07
2019-03-30T07:11:34.752Z,16.77
2019-03-30T07:12:41.135Z,17.25
2019-03-30T07:13:48.327Z,18.12
2019-03-30T07:14:54.023Z,17.25
2019-03-30T07:16:01.529Z,17.55
2019-03-30T07:17:09.045Z,16.77
2019-03-30T07:18:14.977Z,17.05
2019-03-30T07:19:20.777Z,17.55
2019-03-30T07:20:30.166Z,17.25
2019-03-30T07:21:34.631Z,16.93
2019-03-30T07:22:39.117Z,17.67
2019-03-30T07:23:43.585Z,17.30
2019-03-30T07:24:48.043Z,17.25
2019-03-30T07:25:52.514Z,16.95
2019-03-30T07:26:56.990Z,15.70
2019-03-30T07:28:01.484Z,17.62
2019-03-30T07:29:05.950Z,22.55
2019-03-30T07:30:10.565Z,15.85
2019-03-30T11:20:17.530Z,15.00
2019-03-30T11:21:22.400Z,15.30
2019-03-30T11:22:26.889Z,15.18
2019-03-30T11:23:32.613Z,15.08
2019-03-30T11:24:37.085Z,14.93
2019-03-30T11:25:41.847Z,14.95
2019-03-30T11:26:46.334Z,15.90
2019-03-30T11:27:50.806Z,14.20
2019-03-30T11:28:55.566Z,15.15
2019-03-30T11:30:00.050Z,14.23
2019-03-30T11:31:05.584Z,14.03
2019-03-30T11:32:11.409Z,14.75
2019-03-30T11:33:16.170Z,14.30
2019-03-30T11:34:20.628Z,14.07
2019-03-30T11:35:25.096Z,14.28
2019-03-30T11:36:29.564Z,14.18
2019-03-30T11:37:34.053Z,13.72
2019-03-30T11:38:38.823Z,13.25
2019-03-30T11:39:43.297Z,13.38
2019-03-30T11:40:47.768Z,13.78
2019-03-30T11:41:52.545Z,12.40
2019-03-30T11:42:57.302Z,12.88
2019-03-30T11:44:01.780Z,13.18
2019-03-30T11:45:06.986Z,13.43
2019-03-30T11:46:11.745Z,13.50
2019-03-30T11:47:16.241Z,13.60
2019-03-30T11:48:20.996Z,14.03
2019-03-30T11:49:25.761Z,14.25
2019-03-30T11:50:30.225Z,13.20
2019-03-30T11:51:34.699Z,11.75
2019-03-30T11:52:39.182Z,14.10
2019-03-30T11:53:43.666Z,13.20
2019-03-30T11:54:48.129Z,12.23
2019-03-30T11:55:53.045Z,13.80
2019-03-30T11:56:58.889Z,12.50
2019-03-30T11:58:03.376Z,12.47
2019-03-30T11:59:07.849Z,13.32
2019-03-30T12:00:12.725Z,11.60
2019-03-30T12:01:17.199Z,11.75
2019-03-30T12:02:27.848Z,12.43
2019-03-30T12:03:28.161Z,12.43
2019-03-30T12:04:32.630Z,11.95
2019-03-30T12:05:37.092Z,11.95
2019-03-30T12:06:41.562Z,12.35
2019-03-30T12:07:46.048Z,11.45
2019-03-30T12:08:50.885Z,11.85
2019-03-30T12:09:55.370Z,11.78
2019-03-30T12:11:00.014Z,11.85
2019-03-30T12:12:04.492Z,12.23
2019-03-30T12:13:08.978Z,12.63
2019-03-30T12:14:13.737Z,13.00
2019-03-30T12:15:18.534Z,13.15
2019-03-30T12:16:23.058Z,12.35
2019-03-30T12:17:27.548Z,11.95
2019-03-30T12:18:32.309Z,12.45
2019-03-30T12:19:37.076Z,11.90
2019-03-30T12:20:41.532Z,11.60
2019-03-30T12:21:46.364Z,11.88
2019-03-30T12:22:51.179Z,10.93
2019-03-30T12:23:56.007Z,10.85
2019-03-30T12:25:00.477Z,11.75
2019-03-30T12:26:05.119Z,11.40
2019-03-30T12:27:09.589Z,11.63
2019-03-30T12:28:15.034Z,11.57
2019-03-30T12:29:19.596Z,11.68
2019-03-30T12:30:24.223Z,11.63
2019-03-30T12:31:28.974Z,11.70
2019-03-30T12:32:33.459Z,10.80
2019-03-30T12:33:37.930Z,11.22
2019-03-30T12:34:42.398Z,11.78
2019-03-30T12:35:46.861Z,12.05
2019-03-30T12:36:51.340Z,12.82
2019-03-30T12:37:56.200Z,15.60
2019-03-30T12:39:00.672Z,11.73
2019-03-30T12:40:07.501Z,11.20
2019-03-30T12:41:12.337Z,11.80
2019-03-30T12:42:17.218Z,12.00
2019-03-30T12:43:21.708Z,11.63
2019-03-30T12:44:26.180Z,12.20
2019-03-30T12:45:30.644Z,11.12
2019-03-30T12:46:36.253Z,10.95
2019-03-30T12:47:41.021Z,11.20
2019-03-30T12:48:45.599Z,11.28
2019-03-30T12:49:50.041Z,13.65
2019-03-30T12:50:54.514Z,20.52
2019-03-30T12:51:59.269Z,20.75
2019-03-30T12:53:03.773Z,12.68
2019-03-30T12:54:08.235Z,11.48
2019-03-30T12:55:12.774Z,11.80
2019-03-30T12:56:17.254Z,11.95
2019-03-30T12:57:22.007Z,12.70
2019-03-30T12:58:26.493Z,11.73
2019-03-30T12:59:31.311Z,12.03
2019-03-30T13:00:35.774Z,12.90
2019-03-30T13:01:40.238Z,10.70
2019-03-30T13:02:45.005Z,10.20
2019-03-30T13:03:49.495Z,10.23
2019-03-30T13:04:53.957Z,9.58
2019-03-30T13:05:58.753Z,10.30
2019-03-30T13:07:03.219Z,7.80
2019-03-30T13:08:07.701Z,12.10
2019-03-30T13:09:12.170Z,8.50
2019-03-30T13:10:17.313Z,8.70
2019-03-30T13:11:21.771Z,8.38
2019-03-30T13:12:26.235Z,7.45
2019-03-30T13:13:31.007Z,7.95
2019-03-30T13:14:35.875Z,8.60
2019-03-30T13:15:40.342Z,7.72
2019-03-30T13:16:44.802Z,8.45
2019-03-30T13:17:49.259Z,8.30
2019-03-30T13:18:53.739Z,7.47
2019-03-30T13:19:58.196Z,7.35
2019-03-30T13:21:02.948Z,7.92
2019-03-30T13:22:07.417Z,8.05
2019-03-30T13:23:11.879Z,7.83
2019-03-30T13:24:16.376Z,7.95
2019-03-30T13:25:20.826Z,8.40
2019-03-30T13:26:25.477Z,8.28
2019-03-30T13:27:29.936Z,8.13
2019-03-30T13:28:34.778Z,7.90
2019-03-30T13:29:39.530Z,8.55
2019-03-30T13:30:44.154Z,10.20
2019-03-30T13:31:48.779Z,10.28
2019-03-30T13:32:53.669Z,9.68
2019-03-30T13:34:00.279Z,9.35
2019-03-30T13:35:05.841Z,13.40
2019-03-30T13:36:11.567Z,27.15
2019-03-30T13:37:21.154Z,45.55
2019-03-30T13:38:28.827Z,9.35
2019-03-30T13:39:36.118Z,9.53
2019-03-30T13:40:40.575Z,8.53
2019-03-30T13:41:45.074Z,8.90
2019-03-30T13:42:49.832Z,7.85
2019-03-30T13:43:54.320Z,8.10
2019-03-30T13:44:58.792Z,8.53
2019-03-30T13:46:03.641Z,8.10
2019-03-30T13:47:08.559Z,8.20
2019-03-30T13:48:13.376Z,8.13
2019-03-30T13:49:18.199Z,9.10
2019-03-30T13:50:22.991Z,8.48
2019-03-30T13:51:27.515Z,9.40
2019-03-30T13:52:32.487Z,9.35
2019-03-30T13:53:37.108Z,8.50
2019-03-30T13:54:41.695Z,8.10
2019-03-30T13:55:46.180Z,7.97
2019-03-30T13:56:50.659Z,7.80
2019-03-30T13:57:55.326Z,7.37
2019-03-30T13:59:12.030Z,7.05
2019-03-30T14:00:23.159Z,8.23
2019-03-30T14:01:33.623Z,7.45
2019-03-30T14:04:15.097Z,7.20
2019-03-30T14:05:22.528Z,7.37
2019-03-30T14:06:26.984Z,6.78
2019-03-30T14:07:31.537Z,6.70
2019-03-30T14:08:36.094Z,7.55
2019-03-30T14:09:40.572Z,6.90
2019-03-30T14:10:45.335Z,6.87
2019-03-30T14:11:49.963Z,7.53
2019-03-30T14:12:54.454Z,7.00
2019-03-30T14:13:58.966Z,7.50
2019-03-30T14:15:04.402Z,7.97
2019-03-30T14:16:09.239Z,7.17
2019-03-30T14:17:14.027Z,6.85
2019-03-30T14:18:19.940Z,7.22
2019-03-30T14:19:27.426Z,7.08
2019-03-30T14:20:32.243Z,6.72
2019-03-30T14:21:37.022Z,6.65
2019-03-30T14:22:41.479Z,6.30
2019-03-30T14:23:45.962Z,7.12
2019-03-30T14:24:50.805Z,7.30
2019-03-30T14:25:55.618Z,6.55
2019-03-30T14:27:00.073Z,7.17
2019-03-30T14:28:04.921Z,7.03
2019-03-30T14:29:09.390Z,6.35
2019-03-30T14:30:14.727Z,6.80
2019-03-30T14:31:19.391Z,6.35
2019-03-30T14:32:23.851Z,7.05
2019-03-30T14:33:28.643Z,6.10
2019-03-30T14:34:33.162Z,7.85
2019-03-30T14:35:38.123Z,7.70
2019-03-30T14:36:42.761Z,8.08
2019-03-30T14:37:47.213Z,8.28
2019-03-30T14:38:51.694Z,8.18
2019-03-30T14:39:56.322Z,8.15
2019-03-30T14:41:03.692Z,7.62
2019-03-30T14:42:07.398Z,8.08
2019-03-30T14:43:11.883Z,7.67
2019-03-30T14:44:16.367Z,7.70
2019-03-30T14:45:20.856Z,8.63
2019-03-30T14:46:25.339Z,8.70
2019-03-30T14:47:30.175Z,19.05
2019-03-30T14:48:34.651Z,15.30
2019-03-30T14:49:39.414Z,23.45
2019-03-30T14:50:43.913Z,34.75
2019-03-30T14:51:48.378Z,9.15
2019-03-30T14:52:52.836Z,8.18
2019-03-30T14:53:57.301Z,8.00
2019-03-30T14:55:01.944Z,8.28
2019-03-30T14:56:08.623Z,8.73
2019-03-30T14:57:13.540Z,9.90
2019-03-30T14:58:18.380Z,9.13
2019-03-30T14:59:22.858Z,9.50
2019-03-30T15:00:28.532Z,10.63
2019-03-30T15:01:33.165Z,9.70
2019-03-30T15:02:37.944Z,10.38
2019-03-30T15:03:42.430Z,10.88
2019-03-30T15:04:48.484Z,10.40
2019-03-30T15:05:53.076Z,10.98
2019-03-30T15:06:57.539Z,10.25
2019-03-30T15:08:02.072Z,11.08
2019-03-30T15:09:07.418Z,10.90
2019-03-30T15:10:13.324Z,11.63
2019-03-30T15:11:17.822Z,11.20
2019-03-30T15:12:22.785Z,11.60
2019-03-30T15:13:27.257Z,11.43
2019-03-30T15:14:31.728Z,11.85
2019-03-30T15:15:36.225Z,12.30
2019-03-30T15:16:41.020Z,12.47
2019-03-30T15:17:45.498Z,12.00
2019-03-30T15:18:50.030Z,12.55
2019-03-30T15:19:54.540Z,12.28
2019-03-30T15:20:59.214Z,12.40
2019-03-30T15:22:03.703Z,12.00
2019-03-30T15:23:08.202Z,12.13
2019-03-30T15:24:12.765Z,13.32
2019-03-30T15:25:18.076Z,12.93
2019-03-30T15:26:22.564Z,11.73
2019-03-30T15:27:27.041Z,12.75
2019-03-30T15:28:32.762Z,45.33
2019-03-30T15:29:37.524Z,15.90
2019-03-30T15:30:42.012Z,15.88
2019-03-30T15:31:46.710Z,22.40
2019-03-30T15:32:51.177Z,12.73
2019-03-30T15:33:55.645Z,13.00
2019-03-30T15:35:00.298Z,12.35
2019-03-30T15:36:04.935Z,12.95
2019-03-30T15:37:09.727Z,12.65
2019-03-30T15:38:14.197Z,13.43
2019-03-30T15:39:18.663Z,13.32
2019-03-30T15:40:23.491Z,13.10
2019-03-30T15:41:27.986Z,13.70
2019-03-30T15:42:32.450Z,13.25
2019-03-30T15:43:38.489Z,13.22
2019-03-30T15:44:43.163Z,13.15
2019-03-30T15:45:47.928Z,12.88
2019-03-30T15:46:53.658Z,13.58
2019-03-30T15:47:58.133Z,13.30
2019-03-30T15:49:02.608Z,13.30
2019-03-30T15:50:07.918Z,12.63
2019-03-30T15:51:12.402Z,14.00
2019-03-30T15:52:16.872Z,12.93
2019-03-30T15:53:21.342Z,13.60
2019-03-30T15:54:25.804Z,18.00
2019-03-30T15:55:30.601Z,15.05
2019-03-30T15:56:35.087Z,28.98
2019-03-30T15:57:39.557Z,17.90
2019-03-30T15:58:44.393Z,22.22
2019-03-30T15:59:48.861Z,14.68
2019-03-30T16:00:54.332Z,14.75
2019-03-30T16:01:59.089Z,14.73
2019-03-30T16:03:03.632Z,15.45
2019-03-30T16:04:08.092Z,14.45
2019-03-30T16:05:15.461Z,15.30
2019-03-30T16:06:19.578Z,14.95
2019-03-30T16:07:24.335Z,14.30
2019-03-30T16:08:29.103Z,14.65
2019-03-30T16:09:33.562Z,14.55
2019-03-30T16:10:38.035Z,14.60
2019-03-30T16:11:42.515Z,15.25
2019-03-30T16:12:46.977Z,16.30
2019-03-30T16:13:52.021Z,15.78
2019-03-30T16:14:56.778Z,31.62
2019-03-30T16:16:01.542Z,87.47
2019-03-30T16:17:06.096Z,15.78
2019-03-30T16:18:10.849Z,15.63
2019-03-30T16:19:15.479Z,15.25
2019-03-30T16:20:20.011Z,35.52
2019-03-30T16:21:24.796Z,16.05
2019-03-30T16:22:29.420Z,14.07
2019-03-30T16:23:33.951Z,13.78
2019-03-30T16:24:38.771Z,14.28
2019-03-30T16:25:43.252Z,14.38
2019-03-30T16:26:47.732Z,13.50
2019-03-30T16:27:52.204Z,13.30
2019-03-30T16:28:56.681Z,12.35
2019-03-30T16:30:01.146Z,13.90
2019-03-30T16:31:05.637Z,13.88
2019-03-30T16:32:10.179Z,14.15
2019-03-30T16:33:14.667Z,13.68
2019-03-30T16:34:19.142Z,12.98
2019-03-30T16:35:23.908Z,13.15
2019-03-30T16:36:28.774Z,12.73
2019-03-30T16:37:33.240Z,11.53
2019-03-30T16:38:38.080Z,12.78
2019-03-30T16:39:42.841Z,11.73
2019-03-30T16:40:47.300Z,12.78
2019-03-30T16:41:51.794Z,12.37
2019-03-30T16:42:56.554Z,11.30
2019-03-30T16:44:01.305Z,11.60
2019-03-30T16:45:07.999Z,12.58
2019-03-30T16:46:12.458Z,12.28
2019-03-30T16:47:17.573Z,12.33
2019-03-30T16:48:22.445Z,12.63
2019-03-30T16:49:30.064Z,12.93
2019-03-30T16:50:34.489Z,12.78
2019-03-30T16:51:39.021Z,12.63
2019-03-30T16:53:48.685Z,13.00
2019-03-30T16:54:53.303Z,12.23
2019-03-30T16:55:57.773Z,11.83
2019-03-30T16:57:02.557Z,12.53
2019-03-30T16:58:07.422Z,12.00
2019-03-30T16:59:13.986Z,13.05
2019-03-30T17:00:19.868Z,13.58
2019-03-30T17:01:24.426Z,13.90
2019-03-30T17:02:29.301Z,17.02
2019-03-30T17:03:35.377Z,16.57
2019-03-30T17:04:42.941Z,15.23
2019-03-30T17:05:48.166Z,18.00
2019-03-30T17:06:53.038Z,24.63
2019-03-30T17:07:58.125Z,21.80
2019-03-30T17:09:03.120Z,20.88
2019-03-30T17:10:09.818Z,17.20
2019-03-30T17:11:14.669Z,17.27
2019-03-30T17:12:19.560Z,20.17
2019-03-30T17:13:24.265Z,20.77
2019-03-30T17:14:28.978Z,20.35
2019-03-30T17:15:33.660Z,28.75
2019-03-30T17:16:38.910Z,32.40
2019-03-30T17:17:43.765Z,32.05
2019-03-30T17:18:48.444Z,31.97
2019-03-30T17:19:53.598Z,26.52
2019-03-30T17:21:01.496Z,23.95
2019-03-30T17:22:06.111Z,26.17
2019-03-30T17:23:10.935Z,20.27
2019-03-30T17:24:15.463Z,19.12
2019-03-30T17:25:20.729Z,19.85
2019-03-30T17:26:25.370Z,21.85
2019-03-30T17:27:30.215Z,27.95
2019-03-30T17:28:35.352Z,48.02
2019-03-30T17:29:42.275Z,26.45
2019-03-30T17:30:48.167Z,26.55
2019-03-30T17:31:55.016Z,23.38
2019-03-30T17:33:02.174Z,24.02
2019-03-30T17:34:07.586Z,19.20
2019-03-30T17:35:12.284Z,29.10
2019-03-30T17:36:17.498Z,33.02
2019-03-30T17:37:22.330Z,37.33
2019-03-30T17:38:26.954Z,20.23
2019-03-30T17:39:32.375Z,19.65
2019-03-30T17:40:37.617Z,29.87
2019-03-30T17:41:42.897Z,18.45
2019-03-30T17:42:48.858Z,20.52
2019-03-30T17:43:54.101Z,17.98
2019-03-30T17:44:59.633Z,16.77
2019-03-30T17:46:05.072Z,17.52
2019-03-30T17:47:10.802Z,23.30
2019-03-30T17:48:16.586Z,15.25
2019-03-30T17:49:21.959Z,16.42
2019-03-30T17:50:26.907Z,16.25
2019-03-30T17:51:32.045Z,14.80